Time;durP1;ratioP1;P1;durP2;ratioP2;P2;SDS_P1;SDS_P2;PMS_P1;PMS_P2;Temp;Humidity;BMP_temperature;BMP_pressure;BME280_temperature;BME280_humidity;BME280_pressure;Samples;Min_cycle;Max_cycle;Signal;HPM_P1;HPM_P2
2022/09/26 00:00:22;;;;;;;5.45;3.80;;;;;;;15.94;67.85;101403.53;2097713;28;20067;-75
2022/09/26 00:01:45;;;;;;;5.43;3.05;;;;;;;15.91;67.90;101404.38;2089394;28;20053;-74
2022/09/26 00:03:06;;;;;;;5.50;3.55;;;;;;;15.90;67.84;101407.94;2092362;28;20396;-75
2022/09/26 00:04:30;;;;;;;6.22;3.30;;;;;;;15.90;68.00;101401.72;2094948;28;20442;-74
2022/09/26 00:05:52;;;;;;;4.20;3.10;;;;;;;15.88;68.00;101409.69;2095000;28;20040;-72
2022/09/26 00:07:15;;;;;;;4.80;3.10;;;;;;;15.88;67.98;101406.16;2103182;28;20114;-73
2022/09/26 00:08:36;;;;;;;5.10;3.67;;;;;;;15.89;68.00;101407.91;2097414;28;20044;-72
2022/09/26 00:09:59;;;;;;;4.63;3.22;;;;;;;15.86;68.12;101406.16;2086594;28;20049;-72
2022/09/26 00:11:25;;;;;;;4.97;3.35;;;;;;;15.85;68.13;101409.69;2100744;28;20040;-72
2022/09/26 00:12:46;;;;;;;3.50;2.90;;;;;;;15.83;68.17;101403.47;2097525;28;20140;-72
2022/09/26 00:14:13;;;;;;;5.32;3.03;;;;;;;15.84;68.12;101407.91;2095639;28;20059;-73
2022/09/26 00:15:35;;;;;;;3.83;3.40;;;;;;;15.84;68.00;101407.00;2105510;28;20043;-74
2022/09/26 00:16:58;;;;;;;4.55;3.00;;;;;;;15.84;67.99;101405.25;2099068;28;20041;-72
2022/09/26 00:18:20;;;;;;;4.30;2.85;;;;;;;15.81;68.00;101401.69;2096636;28;20054;-73
2022/09/26 00:19:44;;;;;;;4.43;3.25;;;;;;;15.74;68.26;101403.44;2088359;28;20037;-74
2022/09/26 00:21:08;;;;;;;4.30;3.25;;;;;;;15.68;68.46;101402.50;2093636;28;20102;-74
2022/09/26 00:22:30;;;;;;;4.93;2.92;;;;;;;15.64;68.72;101401.59;2088309;28;20098;-73
2022/09/26 00:23:53;;;;;;;3.92;2.90;;;;;;;15.64;68.79;101395.38;2102367;28;20135;-73
2022/09/26 00:25:15;;;;;;;6.53;3.03;;;;;;;15.63;68.76;101394.47;2090809;28;20049;-73
2022/09/26 00:26:38;;;;;;;3.78;2.90;;;;;;;15.64;68.86;101390.94;2093878;28;20052;-73
2022/09/26 00:28:00;;;;;;;6.80;3.22;;;;;;;15.65;68.87;101387.41;2096472;28;20131;-73
2022/09/26 00:29:22;;;;;;;4.43;3.53;;;;;;;15.68;68.89;101391.88;2098987;28;20139;-73
2022/09/26 00:30:44;;;;;;;4.25;3.00;;;;;;;15.73;69.17;101398.09;2088184;28;20041;-73
2022/09/26 00:32:07;;;;;;;6.20;3.30;;;;;;;15.76;69.35;101391.00;2102129;28;20052;-73
2022/09/26 00:33:28;;;;;;;4.07;3.00;;;;;;;15.80;69.36;101397.25;2099088;28;20502;-73
2022/09/26 00:34:53;;;;;;;4.22;3.08;;;;;;;15.81;69.41;101391.94;2096131;28;20049;-73
2022/09/26 00:36:14;;;;;;;4.47;3.03;;;;;;;15.82;69.23;101396.34;2096632;28;20048;-73
2022/09/26 00:37:37;;;;;;;4.10;2.97;;;;;;;15.82;69.27;101395.47;2088164;28;20044;-73
2022/09/26 00:38:59;;;;;;;5.40;3.13;;;;;;;15.82;69.20;101396.34;2093687;28;20041;-73
2022/09/26 00:40:25;;;;;;;4.65;3.05;;;;;;;15.85;69.34;101390.16;2099055;28;20440;-73
2022/09/26 00:41:47;;;;;;;5.82;3.95;;;;;;;15.84;69.41;101393.69;2088437;28;20074;-73
2022/09/26 00:43:25;;;;;;;4.25;3.00;;;;;;;15.85;69.32;101385.72;2096246;28;20044;-73
2022/09/26 00:44:49;;;;;;;4.25;3.20;;;;;;;15.83;69.35;101391.91;2090156;28;20501;-73
2022/09/26 00:46:21;;;;;;;5.07;3.50;;;;;;;15.81;69.44;101388.38;2094063;28;20052;-73
2022/09/26 00:47:47;;;;;;;5.82;3.33;;;;;;;15.77;69.44;101382.13;2097714;28;20113;-73
2022/09/26 00:49:20;;;;;;;5.55;3.40;;;;;;;15.78;69.72;101388.34;2096457;28;20037;-74
2022/09/26 00:50:45;;;;;;;4.38;3.45;;;;;;;15.77;69.97;101382.13;2099085;28;20040;-74
2022/09/26 00:52:10;;;;;;;4.88;3.17;;;;;;;15.80;70.30;101382.16;2090762;28;20540;-73
2022/09/26 00:53:36;;;;;;;5.32;3.83;;;;;;;15.84;70.53;101378.63;2096651;28;20468;-73
2022/09/26 00:55:01;;;;;;;5.38;3.60;;;;;;;15.83;70.49;101371.50;2090581;28;20139;-73
2022/09/26 00:56:29;;;;;;;4.72;3.42;;;;;;;15.85;70.59;101376.84;2086088;28;20044;-73
2022/09/26 00:57:56;;;;;;;4.82;3.75;;;;;;;15.86;70.84;101374.19;2095196;28;20040;-73
2022/09/26 00:59:23;;;;;;;3.92;3.10;;;;;;;15.86;70.90;101373.31;2088867;28;20406;-74
2022/09/26 01:00:48;;;;;;;5.20;3.38;;;;;;;15.86;70.82;101374.19;2096889;28;20399;-73
2022/09/26 01:02:10;;;;;;;4.72;3.50;;;;;;;15.83;70.63;101374.16;2090363;28;20048;-73
2022/09/26 01:03:36;;;;;;;4.38;3.42;;;;;;;15.82;70.52;101372.38;2088085;28;20440;-73
2022/09/26 01:04:59;;;;;;;5.55;3.67;;;;;;;15.79;70.52;101369.72;2085920;28;20481;-73
2022/09/26 01:06:24;;;;;;;5.53;3.70;;;;;;;15.76;70.59;101366.16;2093704;28;20610;-73
2022/09/26 01:07:46;;;;;;;6.30;3.83;;;;;;;15.75;70.85;101367.06;2087818;28;20417;-73
2022/09/26 01:09:12;;;;;;;4.65;3.25;;;;;;;15.73;71.04;101364.38;2101879;28;20139;-73
2022/09/26 01:10:35;;;;;;;6.07;3.58;;;;;;;15.73;71.24;101363.50;2090314;28;20107;-74
2022/09/26 01:12:00;;;;;;;5.20;3.40;;;;;;;15.72;71.40;101359.94;2093657;28;20087;-73
2022/09/26 01:13:26;;;;;;;5.40;3.65;;;;;;;15.70;71.50;101361.69;2096731;28;20469;-73
2022/09/26 01:14:52;;;;;;;6.15;3.58;;;;;;;15.69;71.64;101359.91;2104413;28;20048;-73
2022/09/26 01:16:20;;;;;;;4.68;3.30;;;;;;;15.68;71.69;101357.25;2090472;28;20477;-74
2022/09/26 01:17:44;;;;;;;5.25;4.00;;;;;;;15.69;71.73;101353.69;2093913;28;20047;-73
2022/09/26 01:19:25;;;;;;;5.82;3.83;;;;;;;15.71;71.57;101354.59;2088023;28;20103;-73
2022/09/26 01:20:57;;;;;;;5.68;3.30;;;;;;;15.70;71.61;101356.38;2106607;28;20075;-74
2022/09/26 01:22:46;;;;;;;5.47;3.42;;;;;;;15.70;71.52;101353.72;2098764;28;20068;-74
2022/09/26 01:24:39;;;;;;;4.68;3.45;;;;;;;15.68;71.62;101352.84;2088303;28;20072;-74
2022/09/26 01:26:36;;;;;;;3.95;3.28;;;;;;;15.65;71.48;101360.78;2090655;28;20079;-73
2022/09/26 01:28:12;;;;;;;5.50;3.50;;;;;;;15.61;71.51;101353.69;2074849;28;20049;-73
2022/09/26 01:29:59;;;;;;;5.18;3.33;;;;;;;15.60;71.52;101346.56;2097461;28;20495;-73
2022/09/26 01:31:30;;;;;;;5.38;3.10;;;;;;;15.59;71.46;101347.47;2090131;28;20041;-73
2022/09/26 01:33:31;;;;;;;4.72;2.72;;;;;;;15.59;71.05;101349.22;2087449;28;20044;-74
2022/09/26 01:35:01;;;;;;;5.05;2.80;;;;;;;15.59;71.14;101349.22;2090345;28;20060;-74
2022/09/26 01:36:37;;;;;;;3.50;2.97;;;;;;;15.61;70.95;101353.69;2095688;28;20040;-73
2022/09/26 01:38:13;;;;;;;4.45;3.13;;;;;;;15.66;70.86;101353.69;2098054;28;20508;-74
2022/09/26 01:39:47;;;;;;;5.68;3.22;;;;;;;15.70;70.72;101361.69;2090038;28;20041;-74
2022/09/26 01:41:26;;;;;;;5.30;3.17;;;;;;;15.65;70.57;101363.44;2096434;28;20151;-74
2022/09/26 01:43:00;;;;;;;4.53;2.92;;;;;;;15.52;70.71;101364.25;2089699;28;20044;-74
2022/09/26 01:44:31;;;;;;;4.07;3.10;;;;;;;15.45;70.88;101362.44;2096603;28;20103;-73
2022/09/26 01:45:59;;;;;;;5.45;3.60;;;;;;;15.44;71.08;101361.53;2088747;28;20071;-73
2022/09/26 01:47:27;;;;;;;4.60;3.28;;;;;;;15.48;71.37;101366.00;2096773;28;20488;-73
2022/09/26 01:48:54;;;;;;;6.47;3.58;;;;;;;15.48;71.25;101366.00;2088163;28;20098;-74
2022/09/26 01:50:24;;;;;;;4.30;3.20;;;;;;;15.45;71.40;101370.41;2086254;28;20136;-73
2022/09/26 01:51:51;;;;;;;5.22;3.10;;;;;;;15.40;71.47;101372.16;2103545;28;20075;-74
2022/09/26 01:53:18;;;;;;;5.55;3.50;;;;;;;15.39;71.75;101371.28;2081840;28;20103;-74
2022/09/26 01:54:49;;;;;;;5.20;3.72;;;;;;;15.45;71.95;101368.66;2095525;28;20041;-74
2022/09/26 01:56:14;;;;;;;8.52;3.63;;;;;;;15.52;72.15;101374.88;2088400;28;20370;-74
2022/09/26 01:57:43;;;;;;;5.10;3.38;;;;;;;15.58;72.14;101369.63;2085773;28;20068;-73
2022/09/26 01:59:07;;;;;;;6.90;3.42;;;;;;;15.64;72.10;101377.63;2088246;28;20139;-73
2022/09/26 02:00:31;;;;;;;4.80;3.70;;;;;;;15.65;71.90;101378.53;2077391;28;20044;-73
2022/09/26 02:01:58;;;;;;;5.25;3.35;;;;;;;15.62;71.49;101376.72;2091102;28;20488;-73
2022/09/26 02:03:28;;;;;;;5.28;3.20;;;;;;;15.58;71.28;101371.41;2096678;28;20052;-74
2022/09/26 02:04:53;;;;;;;4.13;3.38;;;;;;;15.55;71.14;101374.94;2104618;28;20036;-73
2022/09/26 02:06:22;;;;;;;5.32;3.47;;;;;;;15.51;71.00;101371.34;2090111;28;20041;-73
2022/09/26 02:07:52;;;;;;;4.15;3.35;;;;;;;15.49;70.93;101373.09;2094887;28;20044;-73
2022/09/26 02:09:18;;;;;;;5.03;3.70;;;;;;;15.48;70.61;101375.75;2088329;28;20066;-72
2022/09/26 02:10:47;;;;;;;4.88;3.35;;;;;;;15.45;70.77;101379.28;2086285;28;20571;-73
2022/09/26 02:12:13;;;;;;;7.15;3.50;;;;;;;15.45;70.85;101373.97;2087996;28;20186;-73
2022/09/26 02:13:40;;;;;;;5.15;3.13;;;;;;;15.43;70.87;101369.50;2087891;28;20052;-73
2022/09/26 02:15:07;;;;;;;5.45;3.65;;;;;;;15.41;71.01;101376.59;2081819;28;20651;-73
2022/09/26 02:16:37;;;;;;;6.32;3.72;;;;;;;15.37;70.98;101373.03;2084696;28;20048;-73
2022/09/26 02:18:07;;;;;;;4.93;3.40;;;;;;;15.34;71.09;101364.16;2086694;28;20053;-73
2022/09/26 02:19:35;;;;;;;4.65;3.15;;;;;;;15.34;71.29;101364.16;2095022;28;20500;-73
2022/09/26 02:21:02;;;;;;;5.53;3.83;;;;;;;15.33;71.46;101362.38;2087672;28;20153;-73
2022/09/26 02:22:27;;;;;;;6.50;3.53;;;;;;;15.32;71.63;101365.91;2094214;28;20041;-73
2022/09/26 02:23:52;;;;;;;5.35;3.72;;;;;;;15.32;71.65;101360.59;2087518;28;20044;-73
2022/09/26 02:25:17;;;;;;;5.72;3.58;;;;;;;15.30;71.79;101362.31;2093990;28;20456;-73
2022/09/26 02:26:41;;;;;;;7.63;4.03;;;;;;;15.28;72.00;101362.34;2087182;28;20128;-73
2022/09/26 02:28:04;;;;;;;5.93;3.70;;;;;;;15.27;72.04;101365.00;2093363;28;20046;-73
2022/09/26 02:29:26;;;;;;;6.55;3.78;;;;;;;15.25;72.24;101364.97;2087251;28;20041;-73
2022/09/26 02:30:52;;;;;;;8.02;4.10;;;;;;;15.24;72.21;101363.19;2087258;28;20048;-73
2022/09/26 02:32:18;;;;;;;6.38;3.85;;;;;;;15.24;72.52;101363.19;2095928;28;20036;-73
2022/09/26 02:33:42;;;;;;;6.28;3.72;;;;;;;15.24;72.62;101364.94;2089715;28;20091;-73
2022/09/26 02:36:54;;;;;;;6.00;3.75;;;;;;;15.24;73.01;101364.94;2097159;28;20068;-73
2022/09/26 02:38:19;;;;;;;6.75;4.00;;;;;;;15.25;73.18;101358.75;2088068;28;20044;-73
2022/09/26 02:39:52;;;;;;;6.38;3.63;;;;;;;15.26;73.29;101363.19;2088173;28;20519;-73
2022/09/26 02:41:29;;;;;;;6.00;3.55;;;;;;;15.27;73.25;101360.56;2087872;28;20108;-73
2022/09/26 02:43:00;;;;;;;6.28;3.75;;;;;;;15.26;73.27;101360.53;2095579;28;20044;-73
2022/09/26 02:44:39;;;;;;;4.75;3.55;;;;;;;15.26;73.32;101361.44;2096576;28;20070;-73
2022/09/26 02:46:12;;;;;;;4.82;3.42;;;;;;;15.25;73.32;101362.31;2097943;28;20086;-73
2022/09/26 02:47:59;;;;;;;4.63;3.20;;;;;;;15.24;73.14;101357.88;2096676;28;20432;-73
2022/09/26 02:49:44;;;;;;;5.50;4.10;;;;;;;15.23;73.09;101358.75;2089766;28;20056;-73
2022/09/26 02:51:27;;;;;;;4.82;3.72;;;;;;;15.22;73.17;101359.66;2098205;28;20095;-73
2022/09/26 02:52:59;;;;;;;5.50;3.55;;;;;;;15.21;73.18;101356.97;2097495;28;20045;-74
2022/09/26 02:54:58;;;;;;;5.60;3.90;;;;;;;15.19;73.23;101364.94;2097961;28;20096;-73
2022/09/26 02:56:30;;;;;;;6.35;3.83;;;;;;;15.20;73.28;101363.16;2089753;28;20040;-72
2022/09/26 02:58:04;;;;;;;5.38;3.88;;;;;;;15.20;73.50;101360.50;2088345;28;20043;-73
2022/09/26 02:59:35;;;;;;;6.57;3.83;;;;;;;15.22;73.66;101358.75;2096051;28;20488;-73
2022/09/26 03:01:05;;;;;;;5.32;3.63;;;;;;;15.21;73.62;101360.53;2088124;28;20079;-72
2022/09/26 03:02:34;;;;;;;5.85;3.85;;;;;;;15.22;73.68;101357.00;2079790;28;20041;-73
2022/09/26 03:04:23;;;;;;;4.75;3.50;;;;;;;15.22;73.79;101361.41;2089412;28;20497;-73
2022/09/26 03:05:47;;;;;;;5.10;3.63;;;;;;;15.23;73.69;101368.53;2104110;28;20078;-73
2022/09/26 03:07:16;;;;;;;5.60;3.88;;;;;;;15.24;73.65;101363.19;2080873;28;20112;-73
2022/09/26 03:08:43;;;;;;;5.00;3.45;;;;;;;15.24;73.67;101363.19;2092695;28;20068;-72
2022/09/26 03:10:10;;;;;;;4.53;3.45;;;;;;;15.24;73.64;101365.84;2087496;28;20037;-73
2022/09/26 03:11:34;;;;;;;5.85;3.58;;;;;;;15.22;73.80;101369.41;2085351;28;20045;-73
2022/09/26 03:13:01;;;;;;;5.90;3.67;;;;;;;15.21;73.84;101363.19;2093055;28;20037;-73
2022/09/26 03:14:23;;;;;;;6.18;3.72;;;;;;;15.19;73.67;101367.59;2087757;28;20511;-72
2022/09/26 03:15:51;;;;;;;6.20;3.83;;;;;;;15.17;73.47;101358.72;2086929;28;20052;-74
2022/09/26 03:17:17;;;;;;;4.88;3.40;;;;;;;15.13;73.42;101362.25;2094869;28;20055;-74
2022/09/26 03:18:45;;;;;;;6.32;3.55;;;;;;;15.10;73.29;101367.53;2095371;28;20043;-74
2022/09/26 03:20:13;;;;;;;5.60;3.40;;;;;;;15.07;73.19;101360.44;2087686;28;20400;-74
2022/09/26 03:21:37;;;;;;;5.13;3.42;;;;;;;15.07;73.29;101363.09;2086087;28;20128;-74
2022/09/26 03:23:02;;;;;;;5.25;3.40;;;;;;;15.08;73.30;101361.31;2084859;28;20098;-76
2022/09/26 03:24:26;;;;;;;5.53;3.60;;;;;;;15.10;73.63;101357.78;2085042;28;20045;-76
2022/09/26 03:26:00;;;;;;;6.45;3.90;;;;;;;15.12;73.88;101369.31;2087585;28;20178;-76
2022/09/26 03:27:22;;;;;;;5.18;3.88;;;;;;;15.11;73.82;101366.66;2086827;28;20509;-76
2022/09/26 03:28:45;;;;;;;7.38;3.85;;;;;;;15.10;73.89;101375.50;2078779;28;20466;-74
2022/09/26 03:30:10;;;;;;;4.40;3.53;;;;;;;15.11;73.96;101369.31;2074280;28;20041;-74
2022/09/26 03:31:39;;;;;;;7.15;3.55;;;;;;;15.12;74.08;101373.75;2093667;28;20126;-73
2022/09/26 03:33:05;;;;;;;5.55;3.55;;;;;;;15.12;74.12;101374.66;2087374;28;20489;-73
2022/09/26 03:34:28;;;;;;;4.75;3.70;;;;;;;15.13;74.04;101373.78;2092696;28;20040;-73
2022/09/26 03:35:51;;;;;;;6.25;3.20;;;;;;;15.12;73.96;101365.78;2079088;28;20461;-74
2022/09/26 03:37:15;;;;;;;4.80;3.60;;;;;;;15.11;73.77;101372.84;2082754;28;20462;-73
2022/09/26 03:38:39;;;;;;;6.55;3.38;;;;;;;15.10;73.71;101370.19;2084222;28;20044;-74
2022/09/26 03:40:14;;;;;;;5.97;3.42;;;;;;;15.05;73.66;101370.16;2087839;28;20151;-73
2022/09/26 03:42:01;;;;;;;7.45;3.70;;;;;;;15.02;73.62;101372.81;2097488;28;20087;-73
2022/09/26 03:43:24;;;;;;;4.88;3.45;;;;;;;15.03;73.81;101366.59;2087114;28;20132;-73
2022/09/26 03:44:48;;;;;;;6.50;3.90;;;;;;;15.04;73.79;101371.03;2086971;28;20040;-73
2022/09/26 03:46:23;;;;;;;6.70;3.50;;;;;;;15.05;73.90;101372.81;2104189;28;20506;-73
2022/09/26 03:47:44;;;;;;;5.35;3.88;;;;;;;15.05;73.92;101372.81;2089884;28;20128;-73
2022/09/26 03:49:07;;;;;;;;;;;;;;;15.01;73.80;101375.47;2086107;28;20068;-73
2022/09/26 03:50:31;;;;;;;4.97;3.67;;;;;;;15.01;73.91;101384.31;2085931;28;19927;-73
2022/09/26 03:51:54;;;;;;;5.30;3.53;;;;;;;15.04;73.94;101383.44;2086428;28;20060;-73
2022/09/26 03:53:20;;;;;;;5.35;3.85;;;;;;;15.05;73.92;101386.13;2094993;28;20049;-73
2022/09/26 03:54:43;;;;;;;4.75;3.58;;;;;;;15.06;73.96;101385.25;2088400;28;20088;-73
2022/09/26 03:56:08;;;;;;;6.15;4.05;;;;;;;15.07;73.90;101386.13;2102569;28;20514;-73
2022/09/26 03:57:30;;;;;;;5.75;3.42;;;;;;;15.04;73.89;101387.00;2099270;28;20044;-73
2022/09/26 03:59:02;;;;;;;5.20;3.60;;;;;;;15.04;74.07;101379.00;2082562;28;20048;-73
2022/09/26 04:00:26;;;;;;;5.43;3.92;;;;;;;15.04;74.06;101381.66;2087262;28;20146;-74
2022/09/26 04:01:49;;;;;;;7.35;3.78;;;;;;;15.03;73.95;101379.88;2094347;28;20040;-73
2022/09/26 04:03:11;;;;;;;5.13;3.60;;;;;;;15.02;73.85;101386.09;2096571;28;20048;-73
2022/09/26 04:04:34;;;;;;;4.68;3.53;;;;;;;15.02;73.90;101394.09;2096829;28;20047;-73
2022/09/26 04:05:58;;;;;;;4.72;3.22;;;;;;;15.06;73.98;101381.69;2091031;28;20163;-73
2022/09/26 04:07:22;;;;;;;4.88;3.40;;;;;;;15.08;74.05;101385.25;2088531;28;20037;-73
2022/09/26 04:08:44;;;;;;;3.67;2.65;;;;;;;15.12;73.94;101381.72;2086221;28;20483;-73
2022/09/26 04:10:11;;;;;;;7.05;3.53;;;;;;;15.13;73.84;101376.44;2093900;28;20476;-73
2022/09/26 04:11:34;;;;;;;4.43;3.15;;;;;;;15.14;73.71;101382.66;2089008;28;20455;-73
2022/09/26 04:12:57;;;;;;;4.60;3.08;;;;;;;15.15;73.53;101385.31;2086427;28;20045;-74
2022/09/26 04:14:21;;;;;;;5.45;3.50;;;;;;;15.18;73.27;101386.19;2085788;28;20053;-74
2022/09/26 04:15:54;;;;;;;4.85;3.45;;;;;;;15.20;73.17;101384.44;2087415;28;20501;-73
2022/09/26 04:17:21;;;;;;;4.35;2.80;;;;;;;15.20;73.20;101387.09;2096569;28;20073;-74
2022/09/26 04:18:42;;;;;;;3.38;2.65;;;;;;;15.21;72.98;101386.22;2088399;28;20132;-73
2022/09/26 04:20:08;;;;;;;5.68;3.50;;;;;;;15.21;72.97;101378.25;2094209;28;20238;-73
2022/09/26 04:21:33;;;;;;;4.55;3.08;;;;;;;15.21;72.83;101384.47;2088974;28;20049;-74
2022/09/26 04:22:56;;;;;;;5.18;3.03;;;;;;;15.23;72.73;101382.69;2088423;28;20053;-74
2022/09/26 04:24:18;;;;;;;5.63;3.22;;;;;;;15.24;72.76;101381.81;2093938;28;20143;-74
2022/09/26 04:25:41;;;;;;;5.85;2.92;;;;;;;15.28;72.55;101380.06;2088413;28;20065;-73
2022/09/26 04:27:05;;;;;;;5.10;3.00;;;;;;;15.30;72.47;101383.63;2102384;28;20472;-74
2022/09/26 04:28:27;;;;;;;4.70;3.22;;;;;;;15.31;72.33;101388.06;2090958;28;20052;-74
2022/09/26 04:29:49;;;;;;;3.28;2.55;;;;;;;15.35;72.19;101384.56;2085637;28;20052;-74
2022/09/26 04:31:26;;;;;;;3.45;2.55;;;;;;;15.37;72.11;101383.66;2088827;28;20061;-74
2022/09/26 04:32:54;;;;;;;3.40;2.70;;;;;;;15.42;72.09;101378.41;2087902;28;20088;-73
2022/09/26 04:34:23;;;;;;;5.97;3.13;;;;;;;15.50;72.28;101385.50;2094568;28;20373;-74
2022/09/26 04:35:45;;;;;;;5.85;2.47;;;;;;;15.60;72.53;101381.19;2096943;28;20045;-74
2022/09/26 04:37:08;;;;;;;3.03;2.30;;;;;;;15.72;72.55;101383.91;2088116;28;20493;-73
2022/09/26 04:38:32;;;;;;;3.20;2.38;;;;;;;15.85;72.41;101385.72;2085973;28;20056;-74
2022/09/26 04:39:56;;;;;;;3.65;2.35;;;;;;;15.98;72.39;101383.09;2078019;28;20038;-74
2022/09/26 04:41:22;;;;;;;3.58;2.10;;;;;;;16.12;72.12;101382.28;2085775;28;20072;-74
2022/09/26 04:42:44;;;;;;;3.65;2.20;;;;;;;16.25;72.07;101380.53;2088592;28;20451;-74
2022/09/26 04:44:07;;;;;;;2.85;2.20;;;;;;;16.39;71.61;101372.56;2085208;28;20041;-74
2022/09/26 04:45:28;;;;;;;3.28;2.15;;;;;;;16.52;71.44;101377.03;2088390;28;20115;-74
2022/09/26 04:46:51;;;;;;;4.85;2.22;;;;;;;16.63;71.20;101372.63;2096390;28;20866;-74
2022/09/26 04:48:14;;;;;;;3.55;1.83;;;;;;;16.76;70.95;101373.50;2088571;28;20051;-74
2022/09/26 04:49:51;;;;;;;2.53;2.13;;;;;;;16.87;70.74;101377.09;2089323;28;20048;-73
2022/09/26 04:51:15;;;;;;;2.38;1.85;;;;;;;17.00;70.65;101379.72;2085886;28;20095;-74
2022/09/26 04:52:37;;;;;;;2.55;1.60;;;;;;;17.11;70.46;101371.72;2088328;28;20127;-74
2022/09/26 04:54:00;;;;;;;;;;;;;;;17.18;69.90;101375.25;2088357;28;20052;-74
2022/09/26 04:55:22;;;;;;;2.65;1.52;;;;;;;17.29;69.90;101378.78;2085792;28;19920;-74
2022/09/26 04:56:47;;;;;;;2.67;1.65;;;;;;;17.41;69.10;101381.44;2101920;28;20044;-74
2022/09/26 04:58:08;;;;;;;2.20;1.70;;;;;;;17.51;68.29;101370.75;2090664;28;20094;-74
2022/09/26 04:59:32;;;;;;;3.80;1.70;;;;;;;17.63;67.69;101371.63;2084684;28;20065;-74
2022/09/26 05:01:03;;;;;;;3.05;1.90;;;;;;;17.78;66.80;101379.59;2086746;28;20107;-75
2022/09/26 05:02:37;;;;;;;1.60;1.45;;;;;;;17.89;66.00;101367.94;2097962;28;20060;-74
2022/09/26 05:04:04;;;;;;;1.73;1.50;;;;;;;18.04;65.42;101374.13;2088335;28;20045;-74
2022/09/26 05:05:32;;;;;;;2.38;1.45;;;;;;;18.15;64.88;101385.63;2086443;28;20132;-74
2022/09/26 05:06:58;;;;;;;2.05;1.50;;;;;;;18.25;64.54;101380.22;2094835;28;20143;-74
2022/09/26 05:08:24;;;;;;;2.85;1.60;;;;;;;18.38;64.05;101381.03;2089021;28;20527;-74
2022/09/26 05:09:47;;;;;;;4.57;1.50;;;;;;;18.51;63.92;101376.50;2085534;28;20045;-74
2022/09/26 05:11:13;;;;;;;5.75;1.55;;;;;;;18.64;63.30;101376.41;2085894;28;20144;-74
2022/09/26 05:12:38;;;;;;;3.38;1.45;;;;;;;18.77;62.71;101374.56;2085698;28;20378;-74
2022/09/26 05:14:02;;;;;;;2.90;1.45;;;;;;;18.91;62.40;101377.09;2085597;28;20044;-74
2022/09/26 05:15:24;;;;;;;18.17;2.33;;;;;;;19.03;61.54;101379.69;2086027;28;20041;-74
2022/09/26 05:16:47;;;;;;;20.95;3.10;;;;;;;19.14;61.18;101377.78;2085182;28;20144;-74
2022/09/26 05:18:12;;;;;;;23.30;3.25;;;;;;;19.29;60.83;101379.41;2088178;28;20111;-74
2022/09/26 05:19:34;;;;;;;7.65;1.80;;;;;;;19.40;60.53;101372.16;2093479;28;20048;-74
2022/09/26 05:21:23;;;;;;;13.38;3.38;;;;;;;19.54;60.29;101369.34;2098377;28;20530;-74
2022/09/26 05:22:46;;;;;;;11.38;2.15;;;;;;;19.66;59.95;101375.47;2096629;28;20098;-75
2022/09/26 05:27:31;;;;;;;2.20;1.30;;;;;;;20.01;58.87;101380.38;2090486;28;20056;-75
2022/09/26 05:29:00;;;;;;;1.98;1.20;;;;;;;20.13;58.63;101376.66;2093654;28;20115;-74
2022/09/26 05:30:25;;;;;;;3.27;1.07;;;;;;;20.21;58.31;101378.31;2088933;28;20052;-74
2022/09/26 05:31:52;;;;;;;1.65;1.23;;;;;;;20.33;58.15;101377.28;2093583;28;20290;-74
2022/09/26 05:33:15;;;;;;;1.92;1.10;;;;;;;20.46;57.96;101378.88;2090291;28;20102;-74
2022/09/26 05:34:38;;;;;;;2.47;1.30;;;;;;;20.56;57.73;101372.44;2085298;28;20415;-74
2022/09/26 05:36:02;;;;;;;2.28;1.30;;;;;;;20.70;57.75;101374.91;2085766;28;20041;-74
2022/09/26 05:37:26;;;;;;;2.42;1.10;;;;;;;20.83;57.74;101372.91;2085357;28;20180;-75
2022/09/26 05:38:48;;;;;;;2.53;1.23;;;;;;;20.98;57.62;101369.97;2085603;28;20428;-74
2022/09/26 05:41:53;;;;;;;1.92;1.15;;;;;;;21.28;57.11;101377.50;2089894;28;20095;-74
2022/09/26 05:43:14;;;;;;;3.58;1.00;;;;;;;21.44;56.77;101372.72;2085527;28;20056;-74
2022/09/26 05:44:39;;;;;;;1.60;1.10;;;;;;;21.58;56.50;101377.84;2093176;28;20625;-74
2022/09/26 05:46:02;;;;;;;1.98;1.40;;;;;;;21.67;56.23;101370.47;2096139;28;20079;-73
2022/09/26 05:47:35;;;;;;;1.35;1.10;;;;;;;21.78;55.87;101372.94;2088651;28;20037;-74
2022/09/26 05:48:58;;;;;;;1.65;1.38;;;;;;;21.88;55.95;101371.81;2094554;28;20101;-74
2022/09/26 05:50:21;;;;;;;3.67;1.23;;;;;;;21.96;55.91;101364.53;2087781;28;20136;-74
2022/09/26 05:51:45;;;;;;;3.13;1.20;;;;;;;22.08;56.18;101374.13;2094039;28;20037;-74
2022/09/26 05:53:11;;;;;;;1.80;1.10;;;;;;;22.22;56.45;101372.00;2087980;28;20079;-74
2022/09/26 05:54:34;;;;;;;3.08;1.38;;;;;;;22.37;56.42;101371.69;2084958;28;20080;-74
2022/09/26 05:56:04;;;;;;;1.48;1.17;;;;;;;22.53;56.02;101369.47;2078542;28;20114;-74
2022/09/26 05:57:52;;;;;;;2.40;1.35;;;;;;;22.73;56.10;101375.31;2089954;28;20428;-74
2022/09/26 05:59:17;;;;;;;1.67;1.38;;;;;;;22.83;56.07;101379.56;2094750;28;20144;-74
2022/09/26 06:01:05;;;;;;;2.67;1.45;;;;;;;23.00;56.33;101371.03;2098267;28;20041;-74
2022/09/26 06:02:29;;;;;;;3.40;1.58;;;;;;;23.13;56.20;101371.59;2088549;28;20041;-74
2022/09/26 06:04:12;;;;;;;1.80;1.13;;;;;;;23.30;56.22;101372.91;2106660;28;20059;-74
2022/09/26 06:05:51;;;;;;;1.92;1.30;;;;;;;23.49;55.84;101367.06;2090221;28;20044;-74
2022/09/26 06:07:17;;;;;;;1.65;1.05;;;;;;;23.65;55.66;101374.66;2094637;28;20052;-74
2022/09/26 06:08:40;;;;;;;4.07;1.20;;;;;;;23.83;55.51;101374.13;2087391;28;20599;-74
2022/09/26 06:10:26;;;;;;;2.45;1.10;;;;;;;24.06;55.08;101377.97;2098297;28;20051;-74
2022/09/26 06:11:52;;;;;;;4.22;2.08;;;;;;;24.26;54.21;101382.78;2095529;28;20040;-74
2022/09/26 06:13:15;;;;;;;1.38;1.00;;;;;;;24.41;53.88;101377.81;2095852;28;20048;-75
2022/09/26 06:14:48;;;;;;;3.83;1.30;;;;;;;24.59;53.92;101370.91;2080698;28;20045;-74
2022/09/26 06:16:17;;;;;;;1.50;1.08;;;;;;;24.73;53.46;101379.47;2100460;28;20079;-74
2022/09/26 06:17:38;;;;;;;3.00;1.00;;;;;;;24.87;53.15;101373.59;2090003;28;20132;-74
2022/09/26 06:19:01;;;;;;;3.05;1.30;;;;;;;25.00;52.91;101378.56;2092856;28;20056;-74
2022/09/26 06:20:24;;;;;;;1.55;1.00;;;;;;;25.13;52.48;101370.91;2095524;28;20071;-75
2022/09/26 06:21:47;;;;;;;1.92;1.05;;;;;;;25.20;52.50;101375.19;2087369;28;20413;-74
2022/09/26 06:23:12;;;;;;;1.40;1.17;;;;;;;25.34;52.08;101370.13;2085645;28;20056;-74
2022/09/26 06:24:36;;;;;;;1.50;1.08;;;;;;;25.44;51.75;101384.22;2085165;28;20048;-74
2022/09/26 06:25:59;;;;;;;2.20;1.00;;;;;;;25.54;51.40;101388.34;2084957;28;20045;-74
2022/09/26 06:27:24;;;;;;;1.00;0.90;;;;;;;25.58;51.41;101381.06;2093135;28;20052;-75
2022/09/26 06:28:48;;;;;;;2.75;1.30;;;;;;;25.66;51.61;101378.97;2087563;28;20044;-75
2022/09/26 06:30:11;;;;;;;1.88;1.08;;;;;;;25.74;51.52;101384.94;2087736;28;20518;-75
2022/09/26 06:31:35;;;;;;;;;;;;;;;25.80;51.25;101373.88;2085182;28;20049;-75
2022/09/26 06:33:06;;;;;;;;;;;;;;;25.91;51.79;101371.69;2096044;28;19955;-74
2022/09/26 06:34:34;;;;;;;2.08;1.10;;;;;;;26.04;51.64;101369.38;2088118;28;19920;-74
2022/09/26 06:36:16;;;;;;;3.35;0.98;;;;;;;26.14;51.15;101371.66;2089729;28;20052;-75
2022/09/26 06:37:38;;;;;;;2.00;1.20;;;;;;;26.29;50.57;101363.91;2079158;28;20091;-74
2022/09/26 06:39:01;;;;;;;2.88;1.10;;;;;;;26.36;49.82;101371.75;2090392;28;20060;-74
2022/09/26 06:40:28;;;;;;;1.80;1.05;;;;;;;26.44;49.47;101366.03;2087949;28;20048;-74
2022/09/26 06:41:52;;;;;;;2.67;1.20;;;;;;;26.50;49.11;101365.78;2093180;28;20051;-74
2022/09/26 06:43:25;;;;;;;2.97;1.23;;;;;;;26.52;49.04;101371.97;2080520;28;20497;-75
2022/09/26 06:45:07;;;;;;;1.73;0.80;;;;;;;26.58;49.27;101375.31;2097844;28;20055;-74
2022/09/26 06:46:51;;;;;;;1.38;1.00;;;;;;;26.64;49.44;101382.34;2098094;28;20069;-75
2022/09/26 06:48:21;;;;;;;1.25;0.90;;;;;;;26.70;49.71;101373.97;2096296;28;20087;-75
2022/09/26 06:50:10;;;;;;;1.63;1.10;;;;;;;26.81;49.39;101371.69;2097850;28;20148;-74
2022/09/26 06:51:37;;;;;;;2.17;1.05;;;;;;;26.86;48.91;101372.38;2088001;28;20048;-75
2022/09/26 06:53:04;;;;;;;2.50;1.25;;;;;;;27.00;48.16;101363.69;2095507;28;20442;-74
2022/09/26 06:54:26;;;;;;;4.32;1.38;;;;;;;27.13;47.66;101362.19;2089701;28;20500;-74